Time;durP1;ratioP1;P1;durP2;ratioP2;P2;SDS_P1;SDS_P2;PMS_P1;PMS_P2;Temp;Humidity;BMP_temperature;BMP_pressure;BME280_temperature;BME280_humidity;BME280_pressure;Samples;Min_cycle;Max_cycle;Signal;HPM_P1;HPM_P2
2021/08/11 00:02:25;;;;;;;0.20;0.20;;;22.20;99.90;;;;;;5051707;28;20172;-75
2021/08/11 00:04:51;;;;;;;0.25;0.25;;;21.90;99.90;;;;;;5051559;28;20164;-74
2021/08/11 00:07:17;;;;;;;1.02;0.32;;;21.80;99.90;;;;;;5051318;28;20204;-75
2021/08/11 00:09:43;;;;;;;0.10;0.10;;;21.60;99.90;;;;;;5069321;28;20164;-75
2021/08/11 00:12:09;;;;;;;0.17;0.15;;;21.50;99.90;;;;;;5070657;28;20216;-75
2021/08/11 00:14:35;;;;;;;0.08;0.08;;;21.20;99.90;;;;;;5088047;28;20172;-75
2021/08/11 00:17:01;;;;;;;0.17;0.17;;;21.20;99.90;;;;;;5087987;28;20197;-75
2021/08/11 00:19:27;;;;;;;0.13;0.13;;;21.10;99.90;;;;;;5089248;28;20193;-74
2021/08/11 00:21:52;;;;;;;0.00;0.00;;;21.00;99.90;;;;;;5089201;28;20251;-75
2021/08/11 00:24:18;;;;;;;0.28;0.22;;;21.00;99.90;;;;;;5087622;28;20215;-75
2021/08/11 00:26:47;;;;;;;0.35;0.35;;;21.00;99.90;;;;;;5087636;28;20210;-75
2021/08/11 00:29:13;;;;;;;0.82;0.30;;;21.00;99.90;;;;;;5089049;28;20167;-74
2021/08/11 00:31:39;;;;;;;0.57;0.57;;;20.90;99.90;;;;;;5089070;28;20156;-75
2021/08/11 00:34:05;;;;;;;0.00;0.00;;;20.70;99.90;;;;;;5087578;28;20191;-75
2021/08/11 00:36:31;;;;;;;0.55;0.47;;;20.60;99.90;;;;;;5089058;28;20236;-74
2021/08/11 00:38:57;;;;;;;1.27;0.73;;;20.60;99.90;;;;;;5088941;28;20148;-74
2021/08/11 00:41:23;;;;;;;0.13;0.13;;;20.50;99.90;;;;;;5087476;28;20168;-74
2021/08/11 00:43:49;;;;;;;0.40;0.40;;;20.30;99.90;;;;;;5088507;28;20254;-74
2021/08/11 00:46:14;;;;;;;0.20;0.20;;;20.20;99.90;;;;;;5088666;28;20195;-74
2021/08/11 00:48:41;;;;;;;0.00;0.00;;;19.90;99.90;;;;;;5088587;28;20231;-75
2021/08/11 00:51:06;;;;;;;0.43;0.40;;;19.70;99.90;;;;;;5087314;28;20164;-74
2021/08/11 00:53:33;;;;;;;0.35;0.35;;;19.50;99.90;;;;;;5088534;28;20257;-74
2021/08/11 00:56:00;;;;;;;0.20;0.20;;;19.40;99.90;;;;;;5088527;28;20157;-74
2021/08/11 00:58:27;;;;;;;0.73;0.73;;;19.30;99.90;;;;;;5088549;28;20160;-73
2021/08/11 01:00:56;;;;;;;0.05;0.05;;;19.20;99.90;;;;;;5088452;28;20186;-73
2021/08/11 01:03:24;;;;;;;0.00;0.00;;;19.30;99.90;;;;;;5087183;28;20290;-74
2021/08/11 01:05:55;;;;;;;0.30;0.20;;;19.40;99.90;;;;;;5086955;28;20196;-74
2021/08/11 01:08:24;;;;;;;0.20;0.20;;;19.40;99.90;;;;;;5088317;28;20248;-74
2021/08/11 01:10:51;;;;;;;1.20;0.22;;;19.40;99.90;;;;;;5086827;28;20178;-74
2021/08/11 01:13:18;;;;;;;1.10;0.22;;;19.40;99.90;;;;;;5086831;28;20192;-74
2021/08/11 01:15:46;;;;;;;0.00;0.00;;;19.60;99.90;;;;;;5086896;28;20213;-75
2021/08/11 01:18:15;;;;;;;0.75;0.75;;;19.50;99.90;;;;;;5088428;28;20175;-76
2021/08/11 01:20:53;;;;;;;0.28;0.25;;;19.50;99.90;;;;;;5088390;28;20251;-75
2021/08/11 01:23:24;;;;;;;0.52;0.52;;;19.40;99.90;;;;;;5087991;28;20215;-75
2021/08/11 01:25:57;;;;;;;3.25;0.63;;;19.40;99.90;;;;;;5086602;28;20239;-75
2021/08/11 01:29:05;;;;;;;0.10;0.10;;;19.50;99.90;;;;;;5088118;28;20182;-76
2021/08/11 01:32:00;;;;;;;0.10;0.10;;;19.40;99.90;;;;;;5075955;28;20179;-75
2021/08/11 01:34:37;;;;;;;0.47;0.43;;;19.50;99.90;;;;;;5086724;28;20243;-75
2021/08/11 01:37:07;;;;;;;0.00;0.00;;;19.50;99.90;;;;;;5088125;28;20156;-76
2021/08/11 01:39:43;;;;;;;0.10;0.10;;;19.50;99.90;;;;;;5086640;28;20168;-76
2021/08/11 01:42:25;;;;;;;0.15;0.08;;;19.50;99.90;;;;;;5086764;28;20214;-76
2021/08/11 01:45:15;;;;;;;0.08;0.08;;;19.60;99.90;;;;;;5088131;28;20221;-75
2021/08/11 01:48:03;;;;;;;0.30;0.30;;;19.60;99.90;;;;;;5087974;28;20163;-75
2021/08/11 01:50:34;;;;;;;1.42;0.30;;;19.50;99.90;;;;;;5087909;28;20220;-76
2021/08/11 01:53:01;;;;;;;0.00;0.00;;;19.60;99.90;;;;;;5087952;28;20214;-77
2021/08/11 01:55:27;;;;;;;0.22;0.22;;;19.50;99.90;;;;;;5089296;28;20159;-77
2021/08/11 01:57:55;;;;;;;0.35;0.35;;;19.40;99.90;;;;;;5091992;28;20156;-76
2021/08/11 02:00:23;;;;;;;0.08;0.08;;;19.40;99.90;;;;;;5090577;28;20252;-76
2021/08/11 02:02:52;;;;;;;0.00;0.00;;;19.40;99.90;;;;;;5091799;28;20218;-76
2021/08/11 02:05:21;;;;;;;1.20;1.10;;;19.50;99.90;;;;;;5091848;28;20156;-76
2021/08/11 02:07:48;;;;;;;0.65;0.65;;;19.60;99.90;;;;;;5090481;28;20259;-76
2021/08/11 02:10:17;;;;;;;0.10;0.10;;;19.50;99.90;;;;;;5091796;28;20164;-76
2021/08/11 02:12:43;;;;;;;0.30;0.25;;;19.70;99.90;;;;;;5090423;28;20254;-76
2021/08/11 02:15:10;;;;;;;0.08;0.08;;;19.70;99.90;;;;;;5091741;28;20167;-77
2021/08/11 02:17:38;;;;;;;0.47;0.47;;;19.70;99.90;;;;;;5091611;28;20156;-76
2021/08/11 02:20:07;;;;;;;0.25;0.25;;;19.60;99.90;;;;;;5090311;28;20640;-76
2021/08/11 02:22:33;;;;;;;0.20;0.20;;;19.50;99.90;;;;;;5091472;28;20267;-76
2021/08/11 02:25:01;;;;;;;0.28;0.22;;;19.50;99.90;;;;;;5089922;28;20223;-76
2021/08/11 02:27:32;;;;;;;0.43;0.43;;;19.40;99.90;;;;;;5091370;28;20212;-76
2021/08/11 02:30:12;;;;;;;0.00;0.00;;;19.40;99.90;;;;;;5091414;28;20721;-76
2021/08/11 02:32:55;;;;;;;0.80;0.57;;;19.30;99.90;;;;;;5089870;28;20217;-77
2021/08/11 02:35:29;;;;;;;0.10;0.10;;;19.10;99.90;;;;;;5091279;28;20160;-76
2021/08/11 02:38:12;;;;;;;0.22;0.22;;;19.00;99.90;;;;;;5091404;28;20153;-76
2021/08/11 02:40:51;;;;;;;2.85;0.65;;;19.10;99.90;;;;;;5089869;28;20168;-75
2021/08/11 02:43:28;;;;;;;0.28;0.22;;;19.10;99.90;;;;;;5090759;28;20218;-75
2021/08/11 02:46:01;;;;;;;0.15;0.15;;;19.20;99.90;;;;;;5091119;28;20255;-75
2021/08/11 02:48:29;;;;;;;0.32;0.32;;;19.10;99.90;;;;;;5090852;28;20216;-77
2021/08/11 02:50:56;;;;;;;0.20;0.20;;;19.10;99.90;;;;;;5091102;28;20156;-74
2021/08/11 02:53:24;;;;;;;0.52;0.45;;;19.10;99.90;;;;;;5091113;28;20192;-76
2021/08/11 02:55:51;;;;;;;0.10;0.10;;;19.30;99.90;;;;;;5089511;28;20507;-74
2021/08/11 02:58:19;;;;;;;0.57;0.38;;;19.30;99.90;;;;;;5089620;28;20179;-75
2021/08/11 03:00:50;;;;;;;0.20;0.20;;;19.30;99.90;;;;;;5090401;28;20165;-74
2021/08/11 03:03:17;;;;;;;0.20;0.20;;;19.30;99.90;;;;;;5090565;28;20200;-75
2021/08/11 03:05:43;;;;;;;0.17;0.17;;;19.40;99.90;;;;;;5090587;28;20187;-75
2021/08/11 03:08:10;;;;;;;0.00;0.00;;;19.30;99.90;;;;;;5090517;28;20161;-77
2021/08/11 03:10:39;;;;;;;0.32;0.30;;;19.40;99.90;;;;;;5090600;28;20164;-77
2021/08/11 03:13:09;;;;;;;0.38;0.38;;;19.50;99.90;;;;;;5090858;28;20243;-77
2021/08/11 03:15:36;;;;;;;2.15;0.25;;;19.60;99.90;;;;;;5089119;28;20172;-77
2021/08/11 03:18:02;;;;;;;0.00;0.00;;;19.50;99.90;;;;;;5089063;28;20172;-77
2021/08/11 03:20:30;;;;;;;0.00;0.00;;;19.20;99.90;;;;;;5090530;28;20168;-77
2021/08/11 03:22:56;;;;;;;0.00;0.00;;;18.90;99.90;;;;;;5089019;28;20264;-79
2021/08/11 03:25:22;;;;;;;0.65;0.65;;;18.90;99.90;;;;;;5090112;28;20273;-76
2021/08/11 03:27:48;;;;;;;0.20;0.20;;;19.00;99.90;;;;;;5088982;28;20329;-76
2021/08/11 03:30:15;;;;;;;1.00;0.93;;;19.00;99.90;;;;;;5090290;28;20182;-76
2021/08/11 03:32:40;;;;;;;0.43;0.43;;;18.90;99.90;;;;;;5090238;28;20215;-76
2021/08/11 03:35:07;;;;;;;0.55;0.55;;;18.80;99.90;;;;;;5090503;28;20156;-76
2021/08/11 03:37:32;;;;;;;0.20;0.20;;;18.70;99.90;;;;;;5088765;28;20183;-77
2021/08/11 03:39:58;;;;;;;0.25;0.25;;;18.60;99.90;;;;;;5090076;28;20157;-76
2021/08/11 03:42:25;;;;;;;0.20;0.20;;;18.60;99.90;;;;;;5088554;28;20226;-77
2021/08/11 03:44:51;;;;;;;10.98;1.42;;;18.50;99.90;;;;;;5090210;28;20532;-79
2021/08/11 03:47:17;;;;;;;0.25;0.25;;;18.60;99.90;;;;;;5090382;28;20221;-78
2021/08/11 03:49:46;;;;;;;0.40;0.40;;;18.70;99.90;;;;;;5089996;28;20156;-78
2021/08/11 03:52:13;;;;;;;1.05;0.50;;;18.80;99.90;;;;;;5089685;28;20192;-79
2021/08/11 03:54:38;;;;;;;0.20;0.20;;;18.80;99.90;;;;;;5088428;28;20206;-78
2021/08/11 03:57:04;;;;;;;0.15;0.15;;;19.00;99.90;;;;;;5089811;28;20164;-77
2021/08/11 03:59:30;;;;;;;0.68;0.68;;;19.10;99.90;;;;;;5089697;28;20156;-76
2021/08/11 04:01:56;;;;;;;0.82;0.80;;;19.00;99.90;;;;;;5088467;28;20198;-77
2021/08/11 04:04:22;;;;;;;0.10;0.10;;;19.00;99.90;;;;;;5088361;28;20200;-77
2021/08/11 04:06:48;;;;;;;0.10;0.10;;;18.90;99.90;;;;;;5089720;28;20207;-77
2021/08/11 04:09:14;;;;;;;0.20;0.20;;;18.80;99.90;;;;;;5089461;28;20514;-76
2021/08/11 04:11:40;;;;;;;0.55;0.47;;;18.90;99.90;;;;;;5088163;28;20172;-77
2021/08/11 04:14:06;;;;;;;0.25;0.25;;;19.00;99.90;;;;;;5089373;28;20628;-77
2021/08/11 04:16:32;;;;;;;0.45;0.45;;;18.90;99.90;;;;;;5089429;28;20232;-78
2021/08/11 04:18:58;;;;;;;0.80;0.80;;;19.00;99.90;;;;;;5089037;28;20618;-77
2021/08/11 04:21:24;;;;;;;0.50;0.50;;;19.10;99.90;;;;;;5089244;28;20535;-78
2021/08/11 04:23:50;;;;;;;0.00;0.00;;;19.30;99.90;;;;;;5089047;28;20187;-78
2021/08/11 04:26:16;;;;;;;0.32;0.28;;;19.20;99.90;;;;;;5087916;28;20231;-76
2021/08/11 04:28:43;;;;;;;0.17;0.17;;;19.20;99.90;;;;;;5087611;28;20199;-78
2021/08/11 04:31:09;;;;;;;0.15;0.15;;;19.20;99.90;;;;;;5087782;28;20180;-76
2021/08/11 04:33:34;;;;;;;0.20;0.20;;;19.20;99.90;;;;;;5088952;28;20205;-78
2021/08/11 04:36:00;;;;;;;0.47;0.47;;;19.30;99.90;;;;;;5089190;28;20160;-79
2021/08/11 04:38:26;;;;;;;0.30;0.30;;;19.60;99.90;;;;;;5088766;28;20162;-76
2021/08/11 04:40:52;;;;;;;0.20;0.20;;;19.70;99.90;;;;;;5087548;28;20167;-78
2021/08/11 04:43:18;;;;;;;0.40;0.40;;;19.70;99.90;;;;;;5088904;28;20199;-77
2021/08/11 04:45:44;;;;;;;1.88;0.73;;;19.70;99.90;;;;;;5088442;28;20213;-77
2021/08/11 04:48:10;;;;;;;0.52;0.52;;;19.60;99.90;;;;;;5087153;28;20194;-77
2021/08/11 04:50:37;;;;;;;0.28;0.28;;;19.40;99.90;;;;;;5088707;28;20594;-77
2021/08/11 04:53:03;;;;;;;0.00;0.00;;;19.50;99.90;;;;;;5088721;28;20199;-77
2021/08/11 04:55:29;;;;;;;3.63;1.27;;;19.80;99.90;;;;;;5087090;28;20202;-77
2021/08/11 04:57:55;;;;;;;0.93;0.85;;;20.00;99.90;;;;;;5088466;28;20190;-77
2021/08/11 05:00:21;;;;;;;0.17;0.17;;;20.00;99.90;;;;;;5087409;28;20172;-77
2021/08/11 05:02:47;;;;;;;0.10;0.10;;;19.70;99.90;;;;;;5088662;28;20192;-77
2021/08/11 05:05:13;;;;;;;1.05;0.57;;;19.50;99.90;;;;;;5086950;28;20172;-77
2021/08/11 05:07:39;;;;;;;0.40;0.30;;;19.80;99.90;;;;;;5088220;28;20180;-77
2021/08/11 05:10:05;;;;;;;0.85;0.68;;;20.10;99.90;;;;;;5070356;28;20229;-77
2021/08/11 05:12:35;;;;;;;1.75;1.10;;;20.20;99.90;;;;;;5087849;28;20294;-79
2021/08/11 05:15:01;;;;;;;0.00;0.00;;;20.10;99.90;;;;;;5088452;28;20179;-77
2021/08/11 05:17:27;;;;;;;0.40;0.40;;;19.90;99.90;;;;;;5088662;28;20243;-76
2021/08/11 05:19:53;;;;;;;4.75;0.43;;;20.50;99.90;;;;;;5088818;28;20172;-76
2021/08/11 05:22:21;;;;;;;0.00;0.00;;;21.10;99.90;;;;;;5088138;28;20191;-76
2021/08/11 05:24:47;;;;;;;0.05;0.05;;;21.70;99.90;;;;;;5075107;28;20230;-75
2021/08/11 05:27:14;;;;;;;0.88;0.82;;;22.20;99.90;;;;;;5086926;28;20543;-75
2021/08/11 05:29:42;;;;;;;2.92;1.63;;;22.60;99.90;;;;;;5086161;28;20170;-76
2021/08/11 05:32:09;;;;;;;0.63;0.63;;;23.40;99.90;;;;;;5086260;28;20199;-76
2021/08/11 05:34:35;;;;;;;0.63;0.50;;;23.30;99.90;;;;;;5088302;28;20215;-76
2021/08/11 05:37:01;;;;;;;0.10;0.10;;;23.80;99.90;;;;;;5103824;28;20236;-76
2021/08/11 05:39:27;;;;;;;0.22;0.22;;;23.70;99.90;;;;;;5088326;28;20224;-75
2021/08/11 05:41:53;;;;;;;0.40;0.40;;;23.10;99.90;;;;;;5086523;28;20183;-76
2021/08/11 05:44:19;;;;;;;0.17;0.17;;;23.20;99.90;;;;;;5086706;28;20609;-77
2021/08/11 05:46:45;;;;;;;0.08;0.08;;;23.50;99.90;;;;;;5088220;28;20207;-77
2021/08/11 05:49:12;;;;;;;6.93;1.88;;;23.80;99.90;;;;;;5087964;28;20168;-76
2021/08/11 05:51:39;;;;;;;3.00;0.52;;;24.00;99.90;;;;;;5088030;28;20160;-77
2021/08/11 05:54:05;;;;;;;0.20;0.20;;;24.20;99.90;;;;;;5088064;28;20195;-76
2021/08/11 05:56:32;;;;;;;1.23;0.75;;;24.50;99.90;;;;;;5087678;28;20190;-76
2021/08/11 05:58:58;;;;;;;0.60;0.40;;;24.60;99.90;;;;;;5087688;28;20189;-75
2021/08/11 06:01:25;;;;;;;0.28;0.28;;;25.00;99.90;;;;;;5103021;28;20179;-75
2021/08/11 06:03:55;;;;;;;0.80;0.80;;;25.00;99.90;;;;;;5087596;28;20187;-76
2021/08/11 06:06:23;;;;;;;0.20;0.20;;;24.90;99.90;;;;;;5087096;28;20218;-76
2021/08/11 06:08:49;;;;;;;0.68;0.63;;;25.00;99.90;;;;;;5087623;28;20160;-77
2021/08/11 06:11:15;;;;;;;0.80;0.30;;;24.80;99.90;;;;;;5085969;28;20207;-77
2021/08/11 06:13:41;;;;;;;0.77;0.63;;;25.00;99.90;;;;;;5068627;28;20228;-78
2021/08/11 06:16:07;;;;;;;1.20;0.22;;;24.50;99.90;;;;;;5086340;28;20203;-75
2021/08/11 06:18:33;;;;;;;0.30;0.30;;;23.90;99.90;;;;;;5086253;28;20156;-76
2021/08/11 06:20:59;;;;;;;0.70;0.45;;;23.30;99.90;;;;;;5086810;28;20164;-76
2021/08/11 06:23:25;;;;;;;0.10;0.10;;;23.20;99.90;;;;;;5087041;28;20628;-77
2021/08/11 06:25:51;;;;;;;0.20;0.20;;;23.10;99.90;;;;;;5087204;28;20284;-77
2021/08/11 06:28:17;;;;;;;0.20;0.20;;;23.70;99.90;;;;;;5087496;28;20164;-77
2021/08/11 06:30:43;;;;;;;0.20;0.20;;;24.80;99.90;;;;;;5087379;28;20243;-77
2021/08/11 06:33:09;;;;;;;1.17;0.30;;;26.10;99.90;;;;;;5087433;28;20182;-77
2021/08/11 06:35:35;;;;;;;0.10;0.10;;;25.80;99.90;;;;;;5087471;28;20256;-77
2021/08/11 06:38:02;;;;;;;0.57;0.43;;;25.70;99.90;;;;;;5087524;28;20153;-77
2021/08/11 06:40:30;;;;;;;0.30;0.30;;;25.50;99.90;;;;;;5069371;28;20178;-76
2021/08/11 06:42:56;;;;;;;0.38;0.38;;;25.20;99.90;;;;;;5090792;28;20171;-76
2021/08/11 06:45:23;;;;;;;0.75;0.75;;;25.20;99.90;;;;;;5072572;28;20294;-77
2021/08/11 06:47:49;;;;;;;0.22;0.22;;;24.30;99.90;;;;;;5072826;28;20167;-78
2021/08/11 06:50:15;;;;;;;0.20;0.17;;;25.00;99.90;;;;;;5072772;28;20202;-77
2021/08/11 06:52:41;;;;;;;0.22;0.22;;;24.80;99.90;;;;;;5090810;28;20156;-75
2021/08/11 06:55:10;;;;;;;0.20;0.20;;;25.00;99.90;;;;;;5072820;28;20247;-76
2021/08/11 06:57:36;;;;;;;0.10;0.10;;;24.90;99.90;;;;;;5090802;28;20186;-77
2021/08/11 07:00:04;;;;;;;0.20;0.20;;;25.90;99.90;;;;;;5090529;28;20163;-77
2021/08/11 07:02:29;;;;;;;0.75;0.75;;;25.20;99.90;;;;;;5071924;28;20171;-78
2021/08/11 07:04:55;;;;;;;0.38;0.38;;;24.10;99.90;;;;;;5072541;28;20168;-77
2021/08/11 07:07:21;;;;;;;0.22;0.22;;;23.70;99.90;;;;;;5072482;28;20302;-77
2021/08/11 07:09:47;;;;;;;0.10;0.10;;;24.00;99.90;;;;;;5089994;28;20590;-76
2021/08/11 07:12:13;;;;;;;0.82;0.82;;;24.00;99.90;;;;;;5090279;28;20512;-78
2021/08/11 07:14:39;;;;;;;0.65;0.35;;;25.10;99.90;;;;;;5090415;28;20220;-78
2021/08/11 07:17:05;;;;;;;0.55;0.55;;;26.00;99.90;;;;;;5072308;28;20172;-78
2021/08/11 07:19:31;;;;;;;0.88;0.80;;;26.40;99.90;;;;;;5089981;28;20164;-77
2021/08/11 07:21:57;;;;;;;0.52;0.32;;;26.80;99.90;;;;;;5090086;28;20160;-77
2021/08/11 07:24:22;;;;;;;0.10;0.10;;;26.80;99.90;;;;;;5090084;28;20234;-78
2021/08/11 07:26:48;;;;;;;0.20;0.20;;;27.10;99.90;;;;;;5072197;28;20283;-78
2021/08/11 07:29:14;;;;;;;1.35;0.63;;;26.60;99.90;;;;;;5089700;28;20151;-77
2021/08/11 07:31:40;;;;;;;0.03;0.03;;;27.40;99.90;;;;;;5090063;28;20155;-77
2021/08/11 07:34:06;;;;;;;0.63;0.50;;;27.00;99.90;;;;;;5090077;28;20214;-77
2021/08/11 07:36:32;;;;;;;0.50;0.50;;;26.70;99.90;;;;;;5087399;28;20207;-74
2021/08/11 07:38:57;;;;;;;0.25;0.10;;;26.30;99.90;;;;;;5088204;28;20235;-74
2021/08/11 07:41:23;;;;;;;0.45;0.45;;;26.10;99.90;;;;;;5089888;28;20191;-75
2021/08/11 07:43:49;;;;;;;0.38;0.38;;;26.30;99.90;;;;;;5088479;28;20201;-75
2021/08/11 07:46:16;;;;;;;0.20;0.20;;;26.10;99.90;;;;;;5089846;28;20203;-75
2021/08/11 07:48:42;;;;;;;0.57;0.57;;;25.50;99.90;;;;;;5071759;28;20163;-76
2021/08/11 07:51:08;;;;;;;0.43;0.43;;;25.60;99.90;;;;;;5089931;28;20195;-76
2021/08/11 07:53:34;;;;;;;0.25;0.25;;;25.70;99.90;;;;;;5070883;28;20160;-76
2021/08/11 07:56:00;;;;;;;0.10;0.10;;;26.20;99.90;;;;;;5089372;28;20186;-75
2021/08/11 07:58:26;;;;;;;3.80;1.20;;;26.30;99.90;;;;;;5089424;28;20160;-75
2021/08/11 08:00:52;;;;;;;0.40;0.28;;;26.00;99.90;;;;;;5089480;28;20216;-77
2021/08/11 08:03:18;;;;;;;0.28;0.28;;;26.50;99.90;;;;;;5071511;28;20558;-75
2021/08/11 08:05:44;;;;;;;0.40;0.40;;;26.80;99.90;;;;;;5071012;28;20274;-74
2021/08/11 08:08:10;;;;;;;0.10;0.10;;;26.50;99.90;;;;;;5070761;28;20671;-75
2021/08/11 08:10:36;;;;;;;0.43;0.43;;;26.80;99.90;;;;;;5088923;28;20184;-76
2021/08/11 08:13:03;;;;;;;0.75;0.50;;;27.10;99.90;;;;;;5070965;28;20171;-77
2021/08/11 08:15:30;;;;;;;0.80;0.60;;;27.00;99.90;;;;;;5071128;28;20168;-76
2021/08/11 08:17:56;;;;;;;0.00;0.00;;;27.10;99.90;;;;;;5089039;28;20156;-78
2021/08/11 08:20:22;;;;;;;0.22;0.22;;;27.70;99.90;;;;;;5088954;28;20217;-79
2021/08/11 08:22:49;;;;;;;3.20;1.55;;;27.40;99.90;;;;;;5088916;28;20190;-78
2021/08/11 08:25:21;;;;;;;0.10;0.10;;;28.30;99.90;;;;;;5088675;28;20647;-77
2021/08/11 08:27:51;;;;;;;0.10;0.10;;;27.50;99.90;;;;;;5088812;28;20151;-77
2021/08/11 08:30:18;;;;;;;0.30;0.30;;;27.90;99.90;;;;;;5088321;28;20184;-78
2021/08/11 08:32:45;;;;;;;0.17;0.17;;;28.70;99.90;;;;;;5070590;28;20179;-77
2021/08/11 08:35:13;;;;;;;0.90;0.65;;;28.70;99.90;;;;;;5088525;28;20214;-77
2021/08/11 08:37:39;;;;;;;0.93;0.68;;;29.30;99.90;;;;;;5062902;28;20187;-78
2021/08/11 08:40:08;;;;;;;0.20;0.20;;;29.50;99.90;;;;;;5054134;28;20571;-78
2021/08/11 08:42:38;;;;;;;0.50;0.50;;;29.70;99.90;;;;;;5088763;28;20156;-78
2021/08/11 08:45:05;;;;;;;8.50;1.10;;;28.70;99.90;;;;;;5080855;28;20215;-78
2021/08/11 08:47:32;;;;;;;0.10;0.10;;;29.10;99.90;;;;;;5070713;28;20214;-78
2021/08/11 08:50:02;;;;;;;0.15;0.15;;;29.90;99.90;;;;;;5070628;28;20313;-76
2021/08/11 08:52:29;;;;;;;0.28;0.13;;;30.10;99.90;;;;;;5070910;28;20164;-75
2021/08/11 08:54:58;;;;;;;0.10;0.10;;;29.90;99.90;;;;;;5088528;28;20154;-77
2021/08/11 08:57:24;;;;;;;0.40;0.40;;;29.00;99.90;;;;;;5088367;28;20163;-76
2021/08/11 08:59:50;;;;;;;0.32;0.30;;;29.10;99.90;;;;;;5088352;28;20206;-76
2021/08/11 09:02:16;;;;;;;0.28;0.25;;;29.00;99.90;;;;;;5088404;28;20166;-76
2021/08/11 09:04:42;;;;;;;0.75;0.75;;;29.90;99.90;;;;;;5087948;28;20186;-76
2021/08/11 09:07:16;;;;;;;0.20;0.20;;;29.90;99.90;;;;;;5088225;28;20241;-76
2021/08/11 09:09:43;;;;;;;0.38;0.38;;;29.80;99.90;;;;;;5086823;28;20187;-76
2021/08/11 09:12:18;;;;;;;0.08;0.08;;;29.60;99.90;;;;;;5069163;28;20160;-76
2021/08/11 09:14:49;;;;;;;0.08;0.08;;;30.20;99.90;;;;;;5068719;28;20223;-76
2021/08/11 09:17:34;;;;;;;0.77;0.52;;;30.90;99.90;;;;;;5050656;28;20160;-76
2021/08/11 09:20:02;;;;;;;0.30;0.30;;;29.80;99.90;;;;;;5049676;28;20192;-76
2021/08/11 09:22:28;;;;;;;2.60;0.30;;;30.30;99.90;;;;;;5049389;28;20193;-77
2021/08/11 09:25:06;;;;;;;0.30;0.30;;;30.20;99.90;;;;;;5062540;28;20250;-73
2021/08/11 09:27:38;;;;;;;0.50;0.50;;;30.20;99.90;;;;;;5047625;28;20188;-75
2021/08/11 09:30:19;;;;;;;0.52;0.52;;;30.10;99.90;;;;;;5047272;28;20208;-74
2021/08/11 09:33:01;;;;;;;1.08;0.77;;;30.50;99.90;;;;;;5045969;28;20199;-73
2021/08/11 09:35:33;;;;;;;2.80;0.25;;;31.00;99.90;;;;;;5047575;28;20196;-75
2021/08/11 09:38:00;;;;;;;0.30;0.22;;;31.00;99.90;;;;;;5047592;28;20564;-74
2021/08/11 09:40:31;;;;;;;1.38;0.40;;;30.00;99.90;;;;;;5047257;28;20212;-74
2021/08/11 09:43:04;;;;;;;0.20;0.20;;;29.50;99.90;;;;;;5041893;28;20173;-74
2021/08/11 09:45:51;;;;;;;0.85;0.10;;;30.40;99.90;;;;;;5047214;28;20273;-74
2021/08/11 09:48:40;;;;;;;0.17;0.17;;;31.40;99.90;;;;;;5044086;28;20180;-74
2021/08/11 09:51:06;;;;;;;0.20;0.20;;;31.30;99.90;;;;;;5047189;28;20169;-73
2021/08/11 09:53:37;;;;;;;0.10;0.10;;;30.50;99.90;;;;;;5046049;28;20168;-73
2021/08/11 09:56:05;;;;;;;0.28;0.28;;;30.50;99.90;;;;;;5045810;28;20203;-73
2021/08/11 09:58:42;;;;;;;3.10;0.40;;;30.30;99.90;;;;;;5046798;28;20165;-72
2021/08/11 10:01:11;;;;;;;0.47;0.20;;;30.60;99.90;;;;;;5046020;28;20172;-73
2021/08/11 10:04:06;;;;;;;0.38;0.38;;;30.20;99.90;;;;;;5047277;28;20191;-73
2021/08/11 10:06:34;;;;;;;0.20;0.20;;;30.10;99.90;;;;;;5045517;28;20223;-74
2021/08/11 10:09:16;;;;;;;0.30;0.30;;;29.50;99.90;;;;;;5046498;28;20217;-73
2021/08/11 10:11:58;;;;;;;10.93;0.55;;;29.70;99.90;;;;;;5045186;28;20168;-72
2021/08/11 10:14:30;;;;;;;0.55;0.55;;;30.30;99.90;;;;;;5045241;28;20172;-73
2021/08/11 10:16:58;;;;;;;0.63;0.63;;;31.50;99.90;;;;;;5047328;28;20200;-73
2021/08/11 10:19:30;;;;;;;0.45;0.45;;;31.70;99.90;;;;;;5050708;28;20161;-73
2021/08/11 10:21:59;;;;;;;0.10;0.10;;;32.50;99.90;;;;;;5050292;28;20153;-73
2021/08/11 10:24:26;;;;;;;0.13;0.13;;;32.50;99.90;;;;;;5053538;28;20255;-73
2021/08/11 10:26:52;;;;;;;0.20;0.20;;;31.50;99.90;;;;;;5069089;28;20295;-73
2021/08/11 10:29:19;;;;;;;0.10;0.10;;;31.40;99.90;;;;;;5070466;28;20167;-73
2021/08/11 10:31:46;;;;;;;0.30;0.30;;;30.70;99.90;;;;;;5069125;28;20540;-74
2021/08/11 10:34:15;;;;;;;0.43;0.43;;;31.70;99.90;;;;;;5070541;28;20224;-74
2021/08/11 10:36:43;;;;;;;0.22;0.22;;;32.70;99.90;;;;;;5070582;28;20192;-73
2021/08/11 10:39:10;;;;;;;0.00;0.00;;;32.00;99.90;;;;;;5050405;28;20230;-76
2021/08/11 10:41:37;;;;;;;0.70;0.65;;;32.10;99.90;;;;;;5048936;28;20184;-77
2021/08/11 10:44:05;;;;;;;0.28;0.28;;;32.80;99.90;;;;;;5052007;28;20175;-77
2021/08/11 10:46:39;;;;;;;0.43;0.28;;;32.50;99.90;;;;;;5068787;28;20279;-76
2021/08/11 10:49:07;;;;;;;0.10;0.10;;;31.80;99.90;;;;;;5068754;28;20179;-75
2021/08/11 10:51:37;;;;;;;0.10;0.10;;;32.50;99.90;;;;;;5066995;28;20192;-75
2021/08/11 10:54:04;;;;;;;0.10;0.10;;;33.20;99.90;;;;;;5069285;28;20267;-75
2021/08/11 10:56:51;;;;;;;0.00;0.00;;;32.60;99.90;;;;;;5070757;28;20152;-75
2021/08/11 10:59:23;;;;;;;3.33;0.93;;;32.80;99.90;;;;;;5069172;28;20176;-75
2021/08/11 11:01:53;;;;;;;0.20;0.20;;;33.30;99.90;;;;;;5070263;28;20287;-76
2021/08/11 11:04:38;;;;;;;0.38;0.38;;;33.60;99.90;;;;;;5070622;28;20605;-75
2021/08/11 11:07:10;;;;;;;0.10;0.10;;;33.80;99.90;;;;;;5069481;28;20188;-75
2021/08/11 11:09:37;;;;;;;0.22;0.20;;;33.50;99.90;;;;;;5066681;28;20200;-75
2021/08/11 11:12:19;;;;;;;0.10;0.10;;;33.20;99.90;;;;;;5067074;28;20202;-77
2021/08/11 11:14:53;;;;;;;0.10;0.10;;;32.50;99.90;;;;;;5068959;28;20198;-76
2021/08/11 11:17:22;;;;;;;1.00;0.17;;;32.70;99.90;;;;;;5068761;28;20219;-76
2021/08/11 11:20:03;;;;;;;0.35;0.35;;;33.10;99.90;;;;;;5070254;28;20247;-76
2021/08/11 11:22:54;;;;;;;0.20;0.20;;;33.10;99.90;;;;;;5063957;28;20645;-76
2021/08/11 11:25:40;;;;;;;0.73;0.73;;;33.50;99.90;;;;;;5071378;28;20302;-74
2021/08/11 11:28:06;;;;;;;0.10;0.10;;;32.90;99.90;;;;;;5082099;28;20290;-74
2021/08/11 11:30:35;;;;;;;0.17;0.17;;;32.10;99.90;;;;;;5088347;28;20195;-75
2021/08/11 11:33:19;;;;;;;0.30;0.30;;;32.20;99.90;;;;;;5089771;28;20163;-74
2021/08/11 11:35:46;;;;;;;0.10;0.10;;;32.30;99.90;;;;;;5090176;28;20179;-75
2021/08/11 11:38:13;;;;;;;0.20;0.20;;;33.20;99.90;;;;;;5071983;28;20210;-76
2021/08/11 11:41:13;;;;;;;0.20;0.20;;;33.30;99.90;;;;;;5071378;28;20245;-74
2021/08/11 11:43:38;;;;;;;0.10;0.10;;;33.30;99.90;;;;;;5045912;28;20220;-75
2021/08/11 11:46:04;;;;;;;0.40;0.40;;;33.40;99.90;;;;;;5065124;28;20255;-76
2021/08/11 11:48:30;;;;;;;0.57;0.57;;;33.70;99.90;;;;;;5058732;28;20243;-76
2021/08/11 11:51:03;;;;;;;0.20;0.20;;;34.00;99.90;;;;;;5056161;28;20186;-76
2021/08/11 11:53:38;;;;;;;0.35;0.30;;;33.90;99.90;;;;;;5058443;28;20260;-76
2021/08/11 11:56:12;;;;;;;0.20;0.20;;;34.30;99.90;;;;;;5047768;28;20168;-76
2021/08/11 11:58:48;;;;;;;0.20;0.20;;;34.40;99.90;;;;;;5052923;28;20211;-76
2021/08/11 12:01:15;;;;;;;0.30;0.30;;;34.70;99.90;;;;;;5047546;28;20727;-76
2021/08/11 12:03:46;;;;;;;0.40;0.40;;;33.90;99.90;;;;;;5047392;28;20353;-76
2021/08/11 12:06:13;;;;;;;0.55;0.55;;;33.30;99.90;;;;;;5030462;28;20266;-76
2021/08/11 12:08:39;;;;;;;1.27;1.17;;;33.80;99.90;;;;;;5030655;28;20260;-76
2021/08/11 12:11:12;;;;;;;0.10;0.10;;;33.50;99.90;;;;;;5045728;28;20196;-76
2021/08/11 12:13:49;;;;;;;0.57;0.57;;;34.40;99.90;;;;;;5047130;28;20260;-76
2021/08/11 12:16:17;;;;;;;0.28;0.28;;;35.00;99.90;;;;;;5026972;28;20169;-76
2021/08/11 12:18:46;;;;;;;0.10;0.10;;;33.70;99.90;;;;;;5038320;28;20183;-76
2021/08/11 12:21:14;;;;;;;0.28;0.28;;;33.10;99.90;;;;;;5058110;28;20212;-76
2021/08/11 12:23:41;;;;;;;0.40;0.40;;;32.40;99.90;;;;;;5067432;28;20170;-76
2021/08/11 12:26:14;;;;;;;1.63;0.52;;;31.50;99.90;;;;;;5066121;28;20231;-75
2021/08/11 12:28:46;;;;;;;0.55;0.55;;;31.00;99.90;;;;;;5067434;28;20183;-74
2021/08/11 12:31:18;;;;;;;0.10;0.10;;;30.30;99.90;;;;;;5067418;28;20199;-75
2021/08/11 12:33:46;;;;;;;10.40;1.55;;;30.20;99.90;;;;;;5067519;28;20164;-76
2021/08/11 12:36:30;;;;;;;0.40;0.40;;;30.60;99.90;;;;;;5068782;28;20182;-76
2021/08/11 12:39:01;;;;;;;0.60;0.60;;;30.30;99.90;;;;;;5067100;28;20168;-74
2021/08/11 12:41:28;;;;;;;4.93;1.73;;;30.10;99.90;;;;;;5084260;28;20203;-74
2021/08/11 12:43:56;;;;;;;0.20;0.20;;;29.80;99.90;;;;;;5070173;28;20176;-74
2021/08/11 12:46:46;;;;;;;0.30;0.30;;;29.70;99.90;;;;;;5088456;28;20183;-74
2021/08/11 12:49:18;;;;;;;0.22;0.22;;;29.60;99.90;;;;;;5082382;28;20172;-74
2021/08/11 12:51:44;;;;;;;0.10;0.10;;;29.40;99.90;;;;;;5068057;28;20196;-74
2021/08/11 12:54:11;;;;;;;0.20;0.20;;;29.20;99.90;;;;;;5057136;28;20214;-74
2021/08/11 12:56:54;;;;;;;0.10;0.10;;;29.30;99.90;;;;;;5068537;28;20159;-74